This is the latest recevied weather packets stored in our database for station/object OE7DRT-13. If no packets are shown the sender has not sent any weather packets the latest 10 day(s).
| Time | Temp. | Humidity | Pressure | Rain* | Wind** | Luminosity | Snow |
|---|---|---|---|---|---|---|---|
| 1777828552 | 18.89° C | 34% | 1015.2 hPa | 0 mm | - | - | - |
| 1777827023 | 19.44° C | 33% | 1015.2 hPa | 0 mm | - | - | - |
| 1777826721 | 19.44° C | 33% | 1015.2 hPa | 0 mm | - | - | - |
| 1777825535 | 20° C | 31% | 1015 hPa | 0 mm | - | - | - |
| 1777824026 | 20.56° C | 30% | 1015.2 hPa | 0 mm | - | - | - |
| 1777821934 | 20.56° C | 30% | 1015.1 hPa | 0 mm | - | - | - |
| 1777819822 | 20.56° C | 30% | 1015.1 hPa | 0 mm | - | - | - |
| 1777818635 | 21.11° C | 28% | 1015.1 hPa | 0 mm | - | - | - |
| 1777818333 | 21.11° C | 27% | 1015.1 hPa | 0 mm | - | - | - |
| 1777816522 | 21.67° C | 26% | 1015.1 hPa | 0 mm | - | - | - |
| 1777815335 | 21.67° C | 25% | 1015.2 hPa | 0 mm | - | - | - |
| 1777812016 | 22.78° C | 25% | 1015.9 hPa | 0 mm | - | - | - |
| 1777811433 | 23.33° C | 26% | 1015.9 hPa | 0 mm | - | - | - |
| 1777810849 | 21.67° C | 28% | 1016 hPa | 0 mm | - | - | - |
| 1777810527 | 21.67° C | 27% | 1016 hPa | 0 mm | - | - | - |
| 1777805416 | 21.11° C | 27% | 1016.1 hPa | 0 mm | - | - | - |
| 1777805135 | 20.56° C | 28% | 1016.3 hPa | 0 mm | - | - | - |
| 1777803948 | 20° C | 30% | 1016.5 hPa | 0 mm | - | - | - |
| 1777800327 | 17.78° C | 33% | 1017.4 hPa | 0 mm | - | - | - |
| 1777799441 | 16.11° C | 36% | 1017.6 hPa | 0 mm | - | - | - |
| 1777797048 | 14.44° C | 43% | 1018.1 hPa | 0 mm | - | - | - |
| 1777796726 | 14.44° C | 44% | 1018.2 hPa | 0 mm | - | - | - |
| 1777791335 | 7.78° C | 69% | 1019.6 hPa | 0 mm | - | - | - |
| 1777782929 | 7.22° C | 66% | 1019.8 hPa | 0 mm | - | - | - |
| 1777776956 | 6.67° C | 69% | 1019.9 hPa | 0 mm | - | - | - |
* Rain latest hour (hover to see other rain measurements)
** Current wind speed in m/s (hover to see current wind gust speed)